Orbital elements of COSMOS 2251 DEB
| Launched | 15 June 1993 |
| Flight ended | – |
| Launch site | Plesetsk Missile and Space Complex, Russia |
| Owner | Commonwealth of Independent States (former USSR) |
| NORAD ID | 33924 |
| Date fetched |
Epoch osculation |
Inc. [°] |
Ecc. | RA asc node [hr] |
Arg Peri. [°] |
Mean anom [°] |
Mean motion [rev/day] |
Abs. mag |
| Date fetched |
Epoch osculation |
Inc. [°] |
Ecc. | RA asc node [hr] |
Arg Peri. [°] |
Mean anom [°] |
Mean motion [rev/day] |
Abs. mag |
| 2026 May 03 17:57 | 2026 Apr 30 12:25:58 | 73.9144 | 0.04013 | 3.1403 | 57.3127 | 306.6022 | 13.50431 | – |
| 2026 May 02 17:57 | 2026 Apr 30 12:25:58 | 73.9144 | 0.04013 | 3.1403 | 57.3127 | 306.6022 | 13.50431 | – |
| 2026 May 01 17:56 | 2026 Apr 30 12:25:58 | 73.9144 | 0.04013 | 3.1403 | 57.3127 | 306.6022 | 13.50431 | – |
| 2026 Apr 30 17:56 | 2026 Apr 30 12:25:58 | 73.9144 | 0.04013 | 3.1403 | 57.3127 | 306.6022 | 13.50431 | – |
| 2026 Apr 29 17:57 | 2026 Apr 24 05:18:57 | 73.9134 | 0.04011 | 3.8151 | 68.6002 | 306.6022 | 13.50431 | – |
| 2026 Apr 28 17:56 | 2026 Apr 24 05:18:57 | 73.9134 | 0.04011 | 3.8151 | 68.6002 | 306.6022 | 13.50431 | – |
| 2026 Apr 27 17:58 | 2026 Apr 24 05:18:57 | 73.9134 | 0.04011 | 3.8151 | 68.6002 | 306.6022 | 13.50431 | – |
| 2026 Apr 26 17:58 | 2026 Apr 24 05:18:57 | 73.9134 | 0.04011 | 3.8151 | 68.6002 | 306.6022 | 13.50431 | – |
| 2026 Apr 25 17:58 | 2026 Apr 24 05:18:57 | 73.9134 | 0.04011 | 3.8151 | 68.6002 | 306.6022 | 13.50431 | – |
| 2026 Apr 24 17:59 | 2026 Apr 24 05:18:57 | 73.9134 | 0.04011 | 3.8151 | 68.6002 | 306.6022 | 13.50431 | – |
| 2026 Apr 23 17:57 | 2026 Apr 19 06:11:56 | 73.9126 | 0.04010 | 4.3471 | 77.5045 | 306.6022 | 13.50431 | – |
| 2026 Apr 22 17:57 | 2026 Apr 19 06:11:56 | 73.9126 | 0.04010 | 4.3471 | 77.5045 | 306.6022 | 13.50431 | – |
| 2026 Apr 21 17:57 | 2026 Apr 19 06:11:56 | 73.9126 | 0.04010 | 4.3471 | 77.5045 | 306.6022 | 13.50431 | – |
| 2026 Apr 20 17:57 | 2026 Apr 19 06:11:56 | 73.9126 | 0.04010 | 4.3471 | 77.5045 | 306.6022 | 13.50431 | – |
| 2026 Apr 19 17:58 | 2026 Apr 19 06:11:56 | 73.9126 | 0.04010 | 4.3471 | 77.5045 | 306.6022 | 13.50431 | – |
| 2026 Apr 18 17:56 | 2026 Apr 13 04:24:45 | 73.9114 | 0.04008 | 4.9981 | 88.4102 | 306.6022 | 13.50431 | – |
| 2026 Apr 16 17:57 | 2026 Apr 13 04:24:45 | 73.9114 | 0.04008 | 4.9981 | 88.4102 | 306.6022 | 13.50431 | – |
| 2026 Apr 14 17:57 | 2026 Apr 13 04:24:45 | 73.9114 | 0.04008 | 4.9981 | 88.4102 | 306.6022 | 13.50431 | – |
| 2026 Apr 13 17:57 | 2026 Apr 13 04:24:45 | 73.9114 | 0.04008 | 4.9981 | 88.4102 | 306.6022 | 13.50431 | – |
| 2026 Apr 12 17:57 | 2026 Apr 08 08:50:57 | 73.9107 | 0.04007 | 5.5142 | 97.0591 | 306.6022 | 13.50431 | – |
| 2026 Apr 11 17:57 | 2026 Apr 08 08:50:57 | 73.9107 | 0.04007 | 5.5142 | 97.0591 | 306.6022 | 13.50431 | – |
| 2026 Apr 10 17:58 | 2026 Apr 08 08:50:57 | 73.9107 | 0.04007 | 5.5142 | 97.0591 | 306.6022 | 13.50431 | – |
| 2026 Apr 09 18:01 | 2026 Apr 08 08:50:57 | 73.9107 | 0.04007 | 5.5142 | 97.0591 | 306.6022 | 13.50431 | – |
| 2026 Apr 08 17:57 | 2026 Apr 08 08:50:57 | 73.9107 | 0.04007 | 5.5142 | 97.0591 | 306.6022 | 13.50431 | – |
| 2026 Apr 07 17:57 | 2026 Apr 02 07:03:38 | 73.9101 | 0.04007 | 6.1654 | 107.9703 | 306.6022 | 13.50431 | – |
| 2026 Apr 06 17:57 | 2026 Apr 02 07:03:38 | 73.9101 | 0.04007 | 6.1654 | 107.9703 | 306.6022 | 13.50431 | – |